sensor_id;sensor_type;location;lat;lon;timestamp;P1;durP1;ratioP1;P2;durP2;ratioP2
47896;SDS011;39629;51.400;5.494;2024-01-06T00:05:02;20.60;;;9.25;;
47896;SDS011;39629;51.400;5.494;2024-01-06T00:10:11;21.80;;;9.55;;
47896;SDS011;39629;51.400;5.494;2024-01-06T00:15:20;22.67;;;9.57;;
47896;SDS011;39629;51.400;5.494;2024-01-06T00:20:26;21.30;;;8.63;;
47896;SDS011;39629;51.400;5.494;2024-01-06T00:25:31;19.15;;;8.20;;
47896;SDS011;39629;51.400;5.494;2024-01-06T00:30:33;20.95;;;8.85;;
47896;SDS011;39629;51.400;5.494;2024-01-06T00:35:35;18.10;;;8.13;;
47896;SDS011;39629;51.400;5.494;2024-01-06T00:40:42;17.55;;;7.90;;
47896;SDS011;39629;51.400;5.494;2024-01-06T00:45:47;16.92;;;7.53;;
47896;SDS011;39629;51.400;5.494;2024-01-06T00:50:52;19.48;;;7.75;;
47896;SDS011;39629;51.400;5.494;2024-01-06T00:55:59;15.82;;;7.30;;
47896;SDS011;39629;51.400;5.494;2024-01-06T01:01:06;19.85;;;6.97;;
47896;SDS011;39629;51.400;5.494;2024-01-06T01:06:11;18.33;;;7.15;;
47896;SDS011;39629;51.400;5.494;2024-01-06T01:11:17;16.33;;;7.00;;
47896;SDS011;39629;51.400;5.494;2024-01-06T01:21:29;18.27;;;8.02;;
47896;SDS011;39629;51.400;5.494;2024-01-06T01:26:32;17.67;;;7.43;;
47896;SDS011;39629;51.400;5.494;2024-01-06T01:31:39;19.08;;;7.32;;
47896;SDS011;39629;51.400;5.494;2024-01-06T01:36:42;19.05;;;7.43;;
47896;SDS011;39629;51.400;5.494;2024-01-06T01:41:49;19.13;;;7.88;;
47896;SDS011;39629;51.400;5.494;2024-01-06T01:46:51;17.88;;;7.53;;
47896;SDS011;39629;51.400;5.494;2024-01-06T01:51:53;21.15;;;7.60;;
47896;SDS011;39629;51.400;5.494;2024-01-06T01:56:57;18.17;;;6.95;;
47896;SDS011;39629;51.400;5.494;2024-01-06T02:01:58;20.17;;;7.50;;
47896;SDS011;39629;51.400;5.494;2024-01-06T02:07:01;18.38;;;7.22;;
47896;SDS011;39629;51.400;5.494;2024-01-06T02:12:04;20.33;;;8.13;;
47896;SDS011;39629;51.400;5.494;2024-01-06T02:17:07;19.63;;;8.00;;
47896;SDS011;39629;51.400;5.494;2024-01-06T02:22:10;20.08;;;7.72;;
47896;SDS011;39629;51.400;5.494;2024-01-06T02:27:14;19.73;;;7.47;;
47896;SDS011;39629;51.400;5.494;2024-01-06T02:32:16;19.75;;;7.20;;
47896;SDS011;39629;51.400;5.494;2024-01-06T02:37:19;19.27;;;7.45;;
47896;SDS011;39629;51.400;5.494;2024-01-06T02:42:22;18.88;;;7.53;;
47896;SDS011;39629;51.400;5.494;2024-01-06T02:47:24;17.75;;;7.30;;
47896;SDS011;39629;51.400;5.494;2024-01-06T02:52:27;18.42;;;7.60;;
47896;SDS011;39629;51.400;5.494;2024-01-06T02:57:29;17.92;;;7.07;;
47896;SDS011;39629;51.400;5.494;2024-01-06T03:02:31;13.90;;;6.32;;
47896;SDS011;39629;51.400;5.494;2024-01-06T03:07:34;15.68;;;5.65;;
47896;SDS011;39629;51.400;5.494;2024-01-06T03:12:36;11.18;;;5.20;;
47896;SDS011;39629;51.400;5.494;2024-01-06T03:17:38;10.85;;;5.35;;
47896;SDS011;39629;51.400;5.494;2024-01-06T03:22:41;12.68;;;4.90;;
47896;SDS011;39629;51.400;5.494;2024-01-06T03:27:43;10.43;;;4.65;;
47896;SDS011;39629;51.400;5.494;2024-01-06T03:32:45;12.32;;;5.05;;
47896;SDS011;39629;51.400;5.494;2024-01-06T03:37:48;11.45;;;4.90;;
47896;SDS011;39629;51.400;5.494;2024-01-06T03:42:50;11.82;;;5.18;;
47896;SDS011;39629;51.400;5.494;2024-01-06T03:47:51;11.38;;;5.07;;
47896;SDS011;39629;51.400;5.494;2024-01-06T03:52:54;12.20;;;5.20;;
47896;SDS011;39629;51.400;5.494;2024-01-06T03:57:56;12.32;;;4.82;;
47896;SDS011;39629;51.400;5.494;2024-01-06T04:02:58;11.60;;;5.20;;
47896;SDS011;39629;51.400;5.494;2024-01-06T04:08:01;10.10;;;4.50;;
47896;SDS011;39629;51.400;5.494;2024-01-06T04:13:03;10.35;;;4.22;;
47896;SDS011;39629;51.400;5.494;2024-01-06T04:18:05;10.00;;;3.92;;
47896;SDS011;39629;51.400;5.494;2024-01-06T04:23:09;9.52;;;4.10;;
47896;SDS011;39629;51.400;5.494;2024-01-06T04:28:10;10.27;;;3.95;;
47896;SDS011;39629;51.400;5.494;2024-01-06T04:33:13;8.00;;;3.78;;
47896;SDS011;39629;51.400;5.494;2024-01-06T04:38:16;7.47;;;3.67;;
47896;SDS011;39629;51.400;5.494;2024-01-06T04:43:17;7.50;;;3.47;;
47896;SDS011;39629;51.400;5.494;2024-01-06T04:48:19;8.18;;;4.20;;
47896;SDS011;39629;51.400;5.494;2024-01-06T04:53:22;9.15;;;4.40;;
47896;SDS011;39629;51.400;5.494;2024-01-06T04:58:24;10.43;;;3.90;;
47896;SDS011;39629;51.400;5.494;2024-01-06T05:03:25;10.23;;;4.38;;
47896;SDS011;39629;51.400;5.494;2024-01-06T05:08:29;8.50;;;3.50;;
47896;SDS011;39629;51.400;5.494;2024-01-06T05:13:31;6.22;;;3.47;;
47896;SDS011;39629;51.400;5.494;2024-01-06T05:18:33;7.82;;;3.65;;
47896;SDS011;39629;51.400;5.494;2024-01-06T05:23:36;6.80;;;3.22;;
47896;SDS011;39629;51.400;5.494;2024-01-06T05:28:38;6.93;;;3.80;;
47896;SDS011;39629;51.400;5.494;2024-01-06T05:33:40;7.55;;;3.28;;
47896;SDS011;39629;51.400;5.494;2024-01-06T05:38:44;8.30;;;3.50;;
47896;SDS011;39629;51.400;5.494;2024-01-06T05:43:46;7.20;;;3.47;;
47896;SDS011;39629;51.400;5.494;2024-01-06T05:48:48;7.90;;;3.10;;
47896;SDS011;39629;51.400;5.494;2024-01-06T05:53:51;5.45;;;2.80;;
47896;SDS011;39629;51.400;5.494;2024-01-06T05:58:53;6.82;;;2.70;;
47896;SDS011;39629;51.400;5.494;2024-01-06T06:03:57;4.60;;;2.50;;
47896;SDS011;39629;51.400;5.494;2024-01-06T06:09:00;6.47;;;2.65;;
47896;SDS011;39629;51.400;5.494;2024-01-06T06:14:06;5.78;;;2.47;;
47896;SDS011;39629;51.400;5.494;2024-01-06T06:19:08;6.45;;;2.50;;
47896;SDS011;39629;51.400;5.494;2024-01-06T06:24:11;4.57;;;2.22;;
47896;SDS011;39629;51.400;5.494;2024-01-06T06:29:13;5.68;;;2.50;;
47896;SDS011;39629;51.400;5.494;2024-01-06T06:34:15;4.18;;;2.00;;
47896;SDS011;39629;51.400;5.494;2024-01-06T06:39:18;5.57;;;2.70;;
47896;SDS011;39629;51.400;5.494;2024-01-06T06:44:20;5.63;;;2.67;;
47896;SDS011;39629;51.400;5.494;2024-01-06T06:49:22;5.28;;;2.17;;
47896;SDS011;39629;51.400;5.494;2024-01-06T06:54:26;6.60;;;2.70;;
47896;SDS011;39629;51.400;5.494;2024-01-06T06:59:27;6.68;;;3.25;;
47896;SDS011;39629;51.400;5.494;2024-01-06T07:04:30;6.40;;;2.80;;
47896;SDS011;39629;51.400;5.494;2024-01-06T07:09:33;6.20;;;2.92;;
47896;SDS011;39629;51.400;5.494;2024-01-06T07:14:34;7.35;;;3.17;;
47896;SDS011;39629;51.400;5.494;2024-01-06T07:19:37;8.45;;;3.67;;
47896;SDS011;39629;51.400;5.494;2024-01-06T07:24:40;7.18;;;3.08;;
47896;SDS011;39629;51.400;5.494;2024-01-06T07:29:42;7.88;;;3.50;;
47896;SDS011;39629;51.400;5.494;2024-01-06T07:34:44;7.35;;;2.92;;
47896;SDS011;39629;51.400;5.494;2024-01-06T07:39:47;6.78;;;2.85;;
47896;SDS011;39629;51.400;5.494;2024-01-06T07:44:49;6.90;;;3.17;;
47896;SDS011;39629;51.400;5.494;2024-01-06T07:49:51;7.70;;;3.45;;
47896;SDS011;39629;51.400;5.494;2024-01-06T07:54:56;7.28;;;2.97;;
47896;SDS011;39629;51.400;5.494;2024-01-06T07:59:57;7.95;;;3.60;;
47896;SDS011;39629;51.400;5.494;2024-01-06T08:05:00;9.60;;;3.88;;
47896;SDS011;39629;51.400;5.494;2024-01-06T08:10:04;10.05;;;4.18;;
47896;SDS011;39629;51.400;5.494;2024-01-06T08:15:09;9.23;;;4.10;;
47896;SDS011;39629;51.400;5.494;2024-01-06T08:20:10;10.90;;;4.38;;
47896;SDS011;39629;51.400;5.494;2024-01-06T08:25:15;10.50;;;4.20;;
47896;SDS011;39629;51.400;5.494;2024-01-06T08:30:23;10.02;;;3.90;;
47896;SDS011;39629;51.400;5.494;2024-01-06T08:35:25;9.27;;;4.32;;
47896;SDS011;39629;51.400;5.494;2024-01-06T08:40:28;10.45;;;3.90;;
47896;SDS011;39629;51.400;5.494;2024-01-06T08:45:30;10.27;;;4.30;;
47896;SDS011;39629;51.400;5.494;2024-01-06T08:50:31;9.25;;;4.00;;
47896;SDS011;39629;51.400;5.494;2024-01-06T08:55:35;9.55;;;4.38;;
47896;SDS011;39629;51.400;5.494;2024-01-06T09:00:39;9.25;;;4.03;;
47896;SDS011;39629;51.400;5.494;2024-01-06T09:05:42;9.73;;;4.07;;
47896;SDS011;39629;51.400;5.494;2024-01-06T09:10:45;11.40;;;4.68;;
47896;SDS011;39629;51.400;5.494;2024-01-06T09:15:47;10.60;;;4.50;;
47896;SDS011;39629;51.400;5.494;2024-01-06T09:20:52;13.20;;;4.60;;
47896;SDS011;39629;51.400;5.494;2024-01-06T09:25:57;11.77;;;4.65;;
47896;SDS011;39629;51.400;5.494;2024-01-06T09:31:03;11.43;;;4.65;;
47896;SDS011;39629;51.400;5.494;2024-01-06T09:36:05;11.05;;;4.78;;
47896;SDS011;39629;51.400;5.494;2024-01-06T09:41:10;11.20;;;4.53;;
47896;SDS011;39629;51.400;5.494;2024-01-06T09:46:14;10.45;;;4.35;;
47896;SDS011;39629;51.400;5.494;2024-01-06T09:51:21;11.68;;;4.85;;
47896;SDS011;39629;51.400;5.494;2024-01-06T09:56:25;10.93;;;4.53;;
47896;SDS011;39629;51.400;5.494;2024-01-06T10:01:28;9.75;;;4.50;;
47896;SDS011;39629;51.400;5.494;2024-01-06T10:06:29;12.35;;;5.05;;
47896;SDS011;39629;51.400;5.494;2024-01-06T10:11:32;10.90;;;4.88;;
47896;SDS011;39629;51.400;5.494;2024-01-06T10:16:37;9.13;;;4.60;;
47896;SDS011;39629;51.400;5.494;2024-01-06T10:21:40;9.93;;;4.80;;
47896;SDS011;39629;51.400;5.494;2024-01-06T10:26:43;10.18;;;4.60;;
47896;SDS011;39629;51.400;5.494;2024-01-06T10:31:46;11.23;;;5.05;;
47896;SDS011;39629;51.400;5.494;2024-01-06T10:36:49;9.02;;;4.78;;
47896;SDS011;39629;51.400;5.494;2024-01-06T10:41:53;10.30;;;5.30;;
47896;SDS011;39629;51.400;5.494;2024-01-06T10:46:56;12.77;;;5.28;;
47896;SDS011;39629;51.400;5.494;2024-01-06T10:51:59;13.00;;;5.13;;
47896;SDS011;39629;51.400;5.494;2024-01-06T10:57:04;8.63;;;4.38;;
47896;SDS011;39629;51.400;5.494;2024-01-06T11:02:07;9.93;;;4.65;;
47896;SDS011;39629;51.400;5.494;2024-01-06T11:07:12;10.93;;;4.68;;
47896;SDS011;39629;51.400;5.494;2024-01-06T11:12:16;9.75;;;4.90;;
47896;SDS011;39629;51.400;5.494;2024-01-06T11:22:53;11.75;;;5.20;;
47896;SDS011;39629;51.400;5.494;2024-01-06T11:27:57;10.02;;;4.95;;
47896;SDS011;39629;51.400;5.494;2024-01-06T11:33:00;9.32;;;4.55;;
47896;SDS011;39629;51.400;5.494;2024-01-06T11:38:06;9.50;;;4.55;;
47896;SDS011;39629;51.400;5.494;2024-01-06T11:43:10;11.60;;;4.57;;
47896;SDS011;39629;51.400;5.494;2024-01-06T11:48:12;10.70;;;4.90;;
47896;SDS011;39629;51.400;5.494;2024-01-06T11:53:14;9.60;;;4.60;;
47896;SDS011;39629;51.400;5.494;2024-01-06T11:58:17;8.77;;;4.00;;
47896;SDS011;39629;51.400;5.494;2024-01-06T12:03:19;9.85;;;4.53;;
47896;SDS011;39629;51.400;5.494;2024-01-06T12:08:21;8.75;;;4.22;;
47896;SDS011;39629;51.400;5.494;2024-01-06T12:13:24;9.10;;;4.35;;
47896;SDS011;39629;51.400;5.494;2024-01-06T12:18:27;8.40;;;4.25;;
47896;SDS011;39629;51.400;5.494;2024-01-06T12:23:28;8.90;;;4.15;;
47896;SDS011;39629;51.400;5.494;2024-01-06T12:28:32;9.70;;;4.00;;
47896;SDS011;39629;51.400;5.494;2024-01-06T12:33:36;9.98;;;4.18;;
47896;SDS011;39629;51.400;5.494;2024-01-06T12:40:27;7.40;;;3.42;;
47896;SDS011;39629;51.400;5.494;2024-01-06T12:45:29;9.20;;;4.20;;
47896;SDS011;39629;51.400;5.494;2024-01-06T12:53:35;17.00;;;4.43;;
47896;SDS011;39629;51.400;5.494;2024-01-06T12:58:37;8.93;;;4.32;;
47896;SDS011;39629;51.400;5.494;2024-01-06T13:03:38;7.60;;;3.72;;
47896;SDS011;39629;51.400;5.494;2024-01-06T13:08:41;10.98;;;4.57;;
47896;SDS011;39629;51.400;5.494;2024-01-06T13:13:43;7.90;;;4.20;;
47896;SDS011;39629;51.400;5.494;2024-01-06T13:18:45;10.40;;;4.82;;
47896;SDS011;39629;51.400;5.494;2024-01-06T13:23:48;10.40;;;5.22;;
47896;SDS011;39629;51.400;5.494;2024-01-06T13:28:49;13.30;;;4.90;;
47896;SDS011;39629;51.400;5.494;2024-01-06T13:33:52;9.27;;;4.63;;
47896;SDS011;39629;51.400;5.494;2024-01-06T13:38:55;12.70;;;5.28;;
47896;SDS011;39629;51.400;5.494;2024-01-06T13:43:57;10.50;;;5.10;;
47896;SDS011;39629;51.400;5.494;2024-01-06T13:48:59;8.68;;;4.25;;
47896;SDS011;39629;51.400;5.494;2024-01-06T13:54:03;8.50;;;3.75;;
47896;SDS011;39629;51.400;5.494;2024-01-06T13:59:05;7.90;;;3.85;;
47896;SDS011;39629;51.400;5.494;2024-01-06T14:04:07;7.38;;;3.45;;
47896;SDS011;39629;51.400;5.494;2024-01-06T14:09:10;6.68;;;3.08;;
47896;SDS011;39629;51.400;5.494;2024-01-06T14:14:13;7.23;;;3.70;;
47896;SDS011;39629;51.400;5.494;2024-01-06T14:19:14;9.32;;;3.60;;
47896;SDS011;39629;51.400;5.494;2024-01-06T14:24:17;10.65;;;4.18;;
47896;SDS011;39629;51.400;5.494;2024-01-06T14:29:23;6.35;;;3.60;;
47896;SDS011;39629;51.400;5.494;2024-01-06T14:34:25;7.22;;;3.45;;
47896;SDS011;39629;51.400;5.494;2024-01-06T14:43:05;6.35;;;3.67;;
47896;SDS011;39629;51.400;5.494;2024-01-06T14:48:07;7.38;;;3.47;;
47896;SDS011;39629;51.400;5.494;2024-01-06T14:53:08;8.90;;;4.05;;
47896;SDS011;39629;51.400;5.494;2024-01-06T14:58:12;9.15;;;3.70;;
47896;SDS011;39629;51.400;5.494;2024-01-06T15:03:13;8.25;;;4.50;;
47896;SDS011;39629;51.400;5.494;2024-01-06T15:08:17;8.70;;;4.20;;
47896;SDS011;39629;51.400;5.494;2024-01-06T15:13:20;6.20;;;3.13;;
47896;SDS011;39629;51.400;5.494;2024-01-06T15:18:22;10.17;;;4.87;;
47896;SDS011;39629;51.400;5.494;2024-01-06T15:23:24;9.30;;;4.70;;
47896;SDS011;39629;51.400;5.494;2024-01-06T15:28:27;9.70;;;4.68;;
47896;SDS011;39629;51.400;5.494;2024-01-06T15:33:29;12.63;;;5.35;;
47896;SDS011;39629;51.400;5.494;2024-01-06T15:38:30;11.65;;;5.13;;
47896;SDS011;39629;51.400;5.494;2024-01-06T15:43:33;9.93;;;4.90;;
47896;SDS011;39629;51.400;5.494;2024-01-06T15:48:34;12.65;;;5.40;;
47896;SDS011;39629;51.400;5.494;2024-01-06T15:53:37;14.50;;;6.50;;
47896;SDS011;39629;51.400;5.494;2024-01-06T15:58:39;11.23;;;5.25;;
47896;SDS011;39629;51.400;5.494;2024-01-06T16:03:41;14.85;;;6.25;;
47896;SDS011;39629;51.400;5.494;2024-01-06T16:08:43;13.77;;;6.13;;
47896;SDS011;39629;51.400;5.494;2024-01-06T16:13:46;16.80;;;6.38;;
47896;SDS011;39629;51.400;5.494;2024-01-06T16:18:47;11.52;;;5.30;;
47896;SDS011;39629;51.400;5.494;2024-01-06T16:23:49;14.48;;;6.45;;
47896;SDS011;39629;51.400;5.494;2024-01-06T16:28:51;14.63;;;7.13;;
47896;SDS011;39629;51.400;5.494;2024-01-06T16:33:53;13.15;;;5.93;;
47896;SDS011;39629;51.400;5.494;2024-01-06T16:38:54;14.32;;;6.40;;
47896;SDS011;39629;51.400;5.494;2024-01-06T16:43:57;15.20;;;6.40;;
47896;SDS011;39629;51.400;5.494;2024-01-06T16:48:58;12.95;;;6.32;;
47896;SDS011;39629;51.400;5.494;2024-01-06T16:54:00;14.18;;;6.22;;
47896;SDS011;39629;51.400;5.494;2024-01-06T16:59:03;14.55;;;6.78;;
47896;SDS011;39629;51.400;5.494;2024-01-06T17:04:04;12.63;;;5.30;;
47896;SDS011;39629;51.400;5.494;2024-01-06T17:09:06;14.60;;;6.07;;
47896;SDS011;39629;51.400;5.494;2024-01-06T17:14:09;12.10;;;5.45;;
47896;SDS011;39629;51.400;5.494;2024-01-06T17:19:11;11.82;;;5.65;;
47896;SDS011;39629;51.400;5.494;2024-01-06T17:24:13;15.45;;;5.78;;
47896;SDS011;39629;51.400;5.494;2024-01-06T17:29:16;9.80;;;4.75;;
47896;SDS011;39629;51.400;5.494;2024-01-06T17:34:17;14.73;;;5.70;;
47896;SDS011;39629;51.400;5.494;2024-01-06T17:39:19;13.82;;;6.13;;
47896;SDS011;39629;51.400;5.494;2024-01-06T17:44:21;9.05;;;4.78;;
47896;SDS011;39629;51.400;5.494;2024-01-06T17:49:23;11.73;;;5.72;;
47896;SDS011;39629;51.400;5.494;2024-01-06T17:54:25;12.40;;;5.78;;
47896;SDS011;39629;51.400;5.494;2024-01-06T17:59:28;11.65;;;5.32;;
47896;SDS011;39629;51.400;5.494;2024-01-06T18:04:30;12.55;;;5.75;;
47896;SDS011;39629;51.400;5.494;2024-01-06T18:09:31;12.15;;;4.80;;
47896;SDS011;39629;51.400;5.494;2024-01-06T18:14:34;13.25;;;5.88;;
47896;SDS011;39629;51.400;5.494;2024-01-06T18:19:36;11.68;;;5.38;;
47896;SDS011;39629;51.400;5.494;2024-01-06T18:24:37;13.57;;;6.05;;
47896;SDS011;39629;51.400;5.494;2024-01-06T18:29:41;11.57;;;5.72;;
47896;SDS011;39629;51.400;5.494;2024-01-06T18:34:43;11.07;;;5.47;;
47896;SDS011;39629;51.400;5.494;2024-01-06T18:39:46;13.13;;;5.93;;
47896;SDS011;39629;51.400;5.494;2024-01-06T18:44:48;13.93;;;5.93;;
47896;SDS011;39629;51.400;5.494;2024-01-06T18:49:50;11.40;;;5.80;;
47896;SDS011;39629;51.400;5.494;2024-01-06T18:54:51;14.35;;;6.50;;
47896;SDS011;39629;51.400;5.494;2024-01-06T18:59:54;13.57;;;5.93;;
47896;SDS011;39629;51.400;5.494;2024-01-06T19:04:56;13.57;;;6.50;;
47896;SDS011;39629;51.400;5.494;2024-01-06T19:09:57;14.05;;;6.55;;
47896;SDS011;39629;51.400;5.494;2024-01-06T19:15:00;14.80;;;6.78;;
47896;SDS011;39629;51.400;5.494;2024-01-06T19:20:02;14.85;;;6.55;;
47896;SDS011;39629;51.400;5.494;2024-01-06T19:25:05;15.10;;;7.60;;
47896;SDS011;39629;51.400;5.494;2024-01-06T19:30:08;14.25;;;7.10;;
47896;SDS011;39629;51.400;5.494;2024-01-06T19:35:13;14.85;;;7.20;;
47896;SDS011;39629;51.400;5.494;2024-01-06T19:40:14;14.10;;;6.95;;
47896;SDS011;39629;51.400;5.494;2024-01-06T19:45:19;15.10;;;7.35;;
47896;SDS011;39629;51.400;5.494;2024-01-06T19:50:21;16.38;;;7.75;;
47896;SDS011;39629;51.400;5.494;2024-01-06T19:55:23;16.45;;;7.60;;
47896;SDS011;39629;51.400;5.494;2024-01-06T20:00:27;18.15;;;7.45;;
47896;SDS011;39629;51.400;5.494;2024-01-06T20:05:29;16.48;;;8.02;;
47896;SDS011;39629;51.400;5.494;2024-01-06T20:10:30;17.35;;;8.32;;
47896;SDS011;39629;51.400;5.494;2024-01-06T20:15:33;16.15;;;8.15;;
47896;SDS011;39629;51.400;5.494;2024-01-06T20:20:35;14.95;;;7.80;;
47896;SDS011;39629;51.400;5.494;2024-01-06T20:25:37;15.95;;;7.95;;
47896;SDS011;39629;51.400;5.494;2024-01-06T20:30:43;17.75;;;8.63;;
47896;SDS011;39629;51.400;5.494;2024-01-06T20:35:45;18.33;;;8.80;;
47896;SDS011;39629;51.400;5.494;2024-01-06T20:40:46;26.95;;;10.55;;
47896;SDS011;39629;51.400;5.494;2024-01-06T20:45:49;24.90;;;10.38;;
47896;SDS011;39629;51.400;5.494;2024-01-06T20:50:53;22.60;;;10.80;;
47896;SDS011;39629;51.400;5.494;2024-01-06T20:55:55;21.30;;;9.38;;
47896;SDS011;39629;51.400;5.494;2024-01-06T21:00:59;23.77;;;10.10;;
47896;SDS011;39629;51.400;5.494;2024-01-06T21:06:00;26.55;;;10.88;;
47896;SDS011;39629;51.400;5.494;2024-01-06T21:11:02;22.33;;;9.25;;
47896;SDS011;39629;51.400;5.494;2024-01-06T21:16:05;23.38;;;9.70;;
47896;SDS011;39629;51.400;5.494;2024-01-06T21:21:06;22.23;;;9.95;;
47896;SDS011;39629;51.400;5.494;2024-01-06T21:26:08;19.58;;;9.15;;
47896;SDS011;39629;51.400;5.494;2024-01-06T21:31:11;20.40;;;9.00;;
47896;SDS011;39629;51.400;5.494;2024-01-06T21:36:12;24.13;;;9.65;;
47896;SDS011;39629;51.400;5.494;2024-01-06T21:41:15;21.67;;;9.52;;
47896;SDS011;39629;51.400;5.494;2024-01-06T21:46:18;20.08;;;8.85;;
47896;SDS011;39629;51.400;5.494;2024-01-06T21:51:20;21.77;;;9.63;;
47896;SDS011;39629;51.400;5.494;2024-01-06T21:56:21;21.35;;;8.70;;
47896;SDS011;39629;51.400;5.494;2024-01-06T22:01:24;18.17;;;8.70;;
47896;SDS011;39629;51.400;5.494;2024-01-06T22:06:26;19.17;;;8.95;;
47896;SDS011;39629;51.400;5.494;2024-01-06T22:11:29;19.42;;;8.68;;
47896;SDS011;39629;51.400;5.494;2024-01-06T22:16:31;20.90;;;9.63;;
47896;SDS011;39629;51.400;5.494;2024-01-06T22:21:37;21.42;;;9.68;;
47896;SDS011;39629;51.400;5.494;2024-01-06T22:26:39;20.63;;;9.10;;
47896;SDS011;39629;51.400;5.494;2024-01-06T22:31:42;20.50;;;8.98;;
47896;SDS011;39629;51.400;5.494;2024-01-06T22:36:43;18.92;;;8.15;;
47896;SDS011;39629;51.400;5.494;2024-01-06T22:41:47;23.13;;;9.30;;
47896;SDS011;39629;51.400;5.494;2024-01-06T22:46:50;22.00;;;9.10;;
47896;SDS011;39629;51.400;5.494;2024-01-06T22:51:51;20.92;;;8.40;;
47896;SDS011;39629;51.400;5.494;2024-01-06T22:56:53;24.10;;;9.50;;
47896;SDS011;39629;51.400;5.494;2024-01-06T23:01:57;21.35;;;8.85;;
47896;SDS011;39629;51.400;5.494;2024-01-06T23:06:58;21.25;;;9.23;;
47896;SDS011;39629;51.400;5.494;2024-01-06T23:11:59;18.55;;;7.85;;
47896;SDS011;39629;51.400;5.494;2024-01-06T23:17:02;21.17;;;8.77;;
47896;SDS011;39629;51.400;5.494;2024-01-06T23:22:04;21.88;;;8.70;;
47896;SDS011;39629;51.400;5.494;2024-01-06T23:27:05;20.83;;;8.80;;
47896;SDS011;39629;51.400;5.494;2024-01-06T23:32:09;20.90;;;9.60;;
47896;SDS011;39629;51.400;5.494;2024-01-06T23:37:11;20.30;;;8.55;;
47896;SDS011;39629;51.400;5.494;2024-01-06T23:42:12;21.02;;;8.80;;
47896;SDS011;39629;51.400;5.494;2024-01-06T23:47:16;22.27;;;9.10;;
47896;SDS011;39629;51.400;5.494;2024-01-06T23:52:17;19.10;;;8.45;;
47896;SDS011;39629;51.400;5.494;2024-01-06T23:57:19;22.58;;;9.23;;
